sensor_id;sensor_type;location;lat;lon;timestamp;temperature;humidity
13960;DHT22;7052;51.050;3.716;2023-12-20T00:00:05;6.50;99.90
13960;DHT22;7052;51.050;3.716;2023-12-20T00:02:32;6.50;99.90
13960;DHT22;7052;51.050;3.716;2023-12-20T00:05:01;6.50;99.90
13960;DHT22;7052;51.050;3.716;2023-12-20T00:07:28;6.50;99.90
13960;DHT22;7052;51.050;3.716;2023-12-20T00:09:55;6.50;99.90
13960;DHT22;7052;51.050;3.716;2023-12-20T00:12:23;6.40;99.90
13960;DHT22;7052;51.050;3.716;2023-12-20T00:14:51;6.40;99.90
13960;DHT22;7052;51.050;3.716;2023-12-20T00:17:19;6.40;99.90
13960;DHT22;7052;51.050;3.716;2023-12-20T00:19:46;6.40;99.90
13960;DHT22;7052;51.050;3.716;2023-12-20T00:22:19;6.40;99.90
13960;DHT22;7052;51.050;3.716;2023-12-20T00:24:46;6.40;99.90
13960;DHT22;7052;51.050;3.716;2023-12-20T00:27:14;6.40;99.90
13960;DHT22;7052;51.050;3.716;2023-12-20T00:29:41;6.30;99.90
13960;DHT22;7052;51.050;3.716;2023-12-20T00:32:14;6.30;99.90
13960;DHT22;7052;51.050;3.716;2023-12-20T00:34:46;6.30;99.90
13960;DHT22;7052;51.050;3.716;2023-12-20T00:37:13;6.30;99.90
13960;DHT22;7052;51.050;3.716;2023-12-20T00:39:43;6.30;99.90
13960;DHT22;7052;51.050;3.716;2023-12-20T00:42:10;6.30;99.90
13960;DHT22;7052;51.050;3.716;2023-12-20T00:44:38;6.30;99.90
13960;DHT22;7052;51.050;3.716;2023-12-20T00:47:06;6.20;99.90
13960;DHT22;7052;51.050;3.716;2023-12-20T00:49:33;6.30;99.90
13960;DHT22;7052;51.050;3.716;2023-12-20T00:52:02;6.20;99.90
13960;DHT22;7052;51.050;3.716;2023-12-20T00:54:32;6.20;99.90
13960;DHT22;7052;51.050;3.716;2023-12-20T00:57:01;6.20;99.90
13960;DHT22;7052;51.050;3.716;2023-12-20T00:59:32;6.30;99.90
13960;DHT22;7052;51.050;3.716;2023-12-20T01:01:59;6.30;99.90
13960;DHT22;7052;51.050;3.716;2023-12-20T01:04:28;6.30;99.90
13960;DHT22;7052;51.050;3.716;2023-12-20T01:06:55;6.30;99.90
13960;DHT22;7052;51.050;3.716;2023-12-20T01:09:27;6.40;99.90
13960;DHT22;7052;51.050;3.716;2023-12-20T01:11:54;6.30;99.90
13960;DHT22;7052;51.050;3.716;2023-12-20T01:14:21;6.40;99.90
13960;DHT22;7052;51.050;3.716;2023-12-20T01:16:50;6.30;99.90
13960;DHT22;7052;51.050;3.716;2023-12-20T01:19:18;6.30;99.90
13960;DHT22;7052;51.050;3.716;2023-12-20T01:21:45;6.40;99.90
13960;DHT22;7052;51.050;3.716;2023-12-20T01:24:13;6.40;99.90
13960;DHT22;7052;51.050;3.716;2023-12-20T01:26:41;6.40;99.90
13960;DHT22;7052;51.050;3.716;2023-12-20T01:29:10;6.50;99.90
13960;DHT22;7052;51.050;3.716;2023-12-20T01:31:37;6.50;99.90
13960;DHT22;7052;51.050;3.716;2023-12-20T01:34:06;6.50;99.90
13960;DHT22;7052;51.050;3.716;2023-12-20T01:36:33;6.60;99.90
13960;DHT22;7052;51.050;3.716;2023-12-20T01:39:00;6.60;99.90
13960;DHT22;7052;51.050;3.716;2023-12-20T01:41:27;6.50;99.90
13960;DHT22;7052;51.050;3.716;2023-12-20T01:43:56;6.60;99.90
13960;DHT22;7052;51.050;3.716;2023-12-20T01:46:24;6.60;99.90
13960;DHT22;7052;51.050;3.716;2023-12-20T01:48:52;6.60;99.90
13960;DHT22;7052;51.050;3.716;2023-12-20T01:51:20;6.60;99.90
13960;DHT22;7052;51.050;3.716;2023-12-20T01:53:49;6.70;99.90
13960;DHT22;7052;51.050;3.716;2023-12-20T01:56:16;6.60;99.90
13960;DHT22;7052;51.050;3.716;2023-12-20T01:58:49;6.70;99.90
13960;DHT22;7052;51.050;3.716;2023-12-20T02:01:21;6.70;99.90
13960;DHT22;7052;51.050;3.716;2023-12-20T02:03:48;6.70;99.90
13960;DHT22;7052;51.050;3.716;2023-12-20T02:06:19;6.60;99.90
13960;DHT22;7052;51.050;3.716;2023-12-20T02:08:49;6.60;99.90
13960;DHT22;7052;51.050;3.716;2023-12-20T02:11:16;6.60;99.90
13960;DHT22;7052;51.050;3.716;2023-12-20T02:13:43;6.60;99.90
13960;DHT22;7052;51.050;3.716;2023-12-20T02:16:10;6.70;99.90
13960;DHT22;7052;51.050;3.716;2023-12-20T02:18:42;6.70;99.90
13960;DHT22;7052;51.050;3.716;2023-12-20T02:21:10;6.70;99.90
13960;DHT22;7052;51.050;3.716;2023-12-20T02:23:39;6.70;99.90
13960;DHT22;7052;51.050;3.716;2023-12-20T02:26:06;6.70;99.90
13960;DHT22;7052;51.050;3.716;2023-12-20T02:28:33;6.80;99.90
13960;DHT22;7052;51.050;3.716;2023-12-20T02:31:02;6.80;99.90
13960;DHT22;7052;51.050;3.716;2023-12-20T02:33:30;6.80;99.90
13960;DHT22;7052;51.050;3.716;2023-12-20T02:35:57;6.80;99.90
13960;DHT22;7052;51.050;3.716;2023-12-20T02:38:25;6.80;99.90
13960;DHT22;7052;51.050;3.716;2023-12-20T02:40:56;6.80;99.90
13960;DHT22;7052;51.050;3.716;2023-12-20T02:43:23;6.80;99.90
13960;DHT22;7052;51.050;3.716;2023-12-20T02:45:50;6.80;99.90
13960;DHT22;7052;51.050;3.716;2023-12-20T02:48:17;6.80;99.90
13960;DHT22;7052;51.050;3.716;2023-12-20T02:50:45;6.80;99.90
13960;DHT22;7052;51.050;3.716;2023-12-20T02:53:13;6.90;99.90
13960;DHT22;7052;51.050;3.716;2023-12-20T02:55:42;6.90;99.90
13960;DHT22;7052;51.050;3.716;2023-12-20T02:58:13;6.90;99.90
13960;DHT22;7052;51.050;3.716;2023-12-20T03:00:43;6.90;99.90
13960;DHT22;7052;51.050;3.716;2023-12-20T03:03:10;6.90;99.90
13960;DHT22;7052;51.050;3.716;2023-12-20T03:05:37;6.90;99.90
13960;DHT22;7052;51.050;3.716;2023-12-20T03:08:05;6.90;99.90
13960;DHT22;7052;51.050;3.716;2023-12-20T03:10:33;6.90;99.90
13960;DHT22;7052;51.050;3.716;2023-12-20T03:13:07;6.90;99.90
13960;DHT22;7052;51.050;3.716;2023-12-20T03:15:36;6.90;99.90
13960;DHT22;7052;51.050;3.716;2023-12-20T03:18:04;6.90;99.90
13960;DHT22;7052;51.050;3.716;2023-12-20T03:20:33;6.90;99.90
13960;DHT22;7052;51.050;3.716;2023-12-20T03:23:01;6.90;99.90
13960;DHT22;7052;51.050;3.716;2023-12-20T03:25:28;6.90;99.90
13960;DHT22;7052;51.050;3.716;2023-12-20T03:27:55;6.90;99.90
13960;DHT22;7052;51.050;3.716;2023-12-20T03:30:22;6.90;99.90
13960;DHT22;7052;51.050;3.716;2023-12-20T03:32:53;6.90;99.90
13960;DHT22;7052;51.050;3.716;2023-12-20T03:35:20;6.90;99.90
13960;DHT22;7052;51.050;3.716;2023-12-20T03:37:51;6.90;99.90
13960;DHT22;7052;51.050;3.716;2023-12-20T03:40:18;6.90;99.90
13960;DHT22;7052;51.050;3.716;2023-12-20T03:42:47;6.90;99.90
13960;DHT22;7052;51.050;3.716;2023-12-20T03:45:15;6.90;99.90
13960;DHT22;7052;51.050;3.716;2023-12-20T03:47:42;6.80;99.90
13960;DHT22;7052;51.050;3.716;2023-12-20T03:50:11;6.90;99.90
13960;DHT22;7052;51.050;3.716;2023-12-20T03:52:37;6.90;99.90
13960;DHT22;7052;51.050;3.716;2023-12-20T03:55:05;6.90;99.90
13960;DHT22;7052;51.050;3.716;2023-12-20T03:57:35;6.90;99.90
13960;DHT22;7052;51.050;3.716;2023-12-20T04:00:05;6.90;99.90
13960;DHT22;7052;51.050;3.716;2023-12-20T04:02:36;6.80;99.90
13960;DHT22;7052;51.050;3.716;2023-12-20T04:05:03;6.80;99.90
13960;DHT22;7052;51.050;3.716;2023-12-20T04:07:32;6.70;99.90
13960;DHT22;7052;51.050;3.716;2023-12-20T04:09:59;6.70;99.90
13960;DHT22;7052;51.050;3.716;2023-12-20T04:12:27;6.70;99.90
13960;DHT22;7052;51.050;3.716;2023-12-20T04:14:54;6.60;99.90
13960;DHT22;7052;51.050;3.716;2023-12-20T04:17:23;6.60;99.90
13960;DHT22;7052;51.050;3.716;2023-12-20T04:19:51;6.60;99.90
13960;DHT22;7052;51.050;3.716;2023-12-20T04:22:18;6.60;99.90
13960;DHT22;7052;51.050;3.716;2023-12-20T04:24:48;6.60;99.90
13960;DHT22;7052;51.050;3.716;2023-12-20T04:27:15;6.60;99.90
13960;DHT22;7052;51.050;3.716;2023-12-20T04:29:43;6.60;99.90
13960;DHT22;7052;51.050;3.716;2023-12-20T04:32:11;6.60;99.90
13960;DHT22;7052;51.050;3.716;2023-12-20T04:34:41;6.70;99.90
13960;DHT22;7052;51.050;3.716;2023-12-20T04:37:08;6.70;99.90
13960;DHT22;7052;51.050;3.716;2023-12-20T04:39:36;6.70;99.90
13960;DHT22;7052;51.050;3.716;2023-12-20T04:42:05;6.80;99.90
13960;DHT22;7052;51.050;3.716;2023-12-20T04:44:32;6.70;99.90
13960;DHT22;7052;51.050;3.716;2023-12-20T04:47:00;6.70;99.90
13960;DHT22;7052;51.050;3.716;2023-12-20T04:49:27;6.70;99.90
13960;DHT22;7052;51.050;3.716;2023-12-20T04:51:57;6.60;99.90
13960;DHT22;7052;51.050;3.716;2023-12-20T04:54:26;6.60;99.90
13960;DHT22;7052;51.050;3.716;2023-12-20T04:56:54;6.60;99.90
13960;DHT22;7052;51.050;3.716;2023-12-20T04:59:23;6.50;99.90
13960;DHT22;7052;51.050;3.716;2023-12-20T05:01:51;6.50;99.90
13960;DHT22;7052;51.050;3.716;2023-12-20T05:04:18;6.40;99.90
13960;DHT22;7052;51.050;3.716;2023-12-20T05:06:46;6.40;99.90
13960;DHT22;7052;51.050;3.716;2023-12-20T05:09:18;6.30;99.90
13960;DHT22;7052;51.050;3.716;2023-12-20T05:11:46;6.20;99.90
13960;DHT22;7052;51.050;3.716;2023-12-20T05:14:13;6.30;99.90
13960;DHT22;7052;51.050;3.716;2023-12-20T05:16:43;6.20;99.90
13960;DHT22;7052;51.050;3.716;2023-12-20T05:19:10;6.20;99.90
13960;DHT22;7052;51.050;3.716;2023-12-20T05:21:37;6.20;99.90
13960;DHT22;7052;51.050;3.716;2023-12-20T05:24:05;6.20;99.90
13960;DHT22;7052;51.050;3.716;2023-12-20T05:26:32;6.20;99.90
13960;DHT22;7052;51.050;3.716;2023-12-20T05:28:59;6.10;99.90
13960;DHT22;7052;51.050;3.716;2023-12-20T05:31:27;6.10;99.90
13960;DHT22;7052;51.050;3.716;2023-12-20T05:33:56;6.10;99.90
13960;DHT22;7052;51.050;3.716;2023-12-20T05:36:23;6.00;99.90
13960;DHT22;7052;51.050;3.716;2023-12-20T05:38:50;6.10;99.90
13960;DHT22;7052;51.050;3.716;2023-12-20T05:41:18;6.10;99.90
13960;DHT22;7052;51.050;3.716;2023-12-20T05:43:45;6.10;99.90
13960;DHT22;7052;51.050;3.716;2023-12-20T05:46:12;6.10;99.90
13960;DHT22;7052;51.050;3.716;2023-12-20T05:48:39;6.10;99.90
13960;DHT22;7052;51.050;3.716;2023-12-20T05:51:11;6.10;99.90
13960;DHT22;7052;51.050;3.716;2023-12-20T05:53:38;6.20;99.90
13960;DHT22;7052;51.050;3.716;2023-12-20T05:56:06;6.10;99.90
13960;DHT22;7052;51.050;3.716;2023-12-20T05:58:33;6.10;99.90
13960;DHT22;7052;51.050;3.716;2023-12-20T06:01:04;6.10;99.90
13960;DHT22;7052;51.050;3.716;2023-12-20T06:03:31;6.10;99.90
13960;DHT22;7052;51.050;3.716;2023-12-20T06:05:58;6.00;99.90
13960;DHT22;7052;51.050;3.716;2023-12-20T06:08:30;6.00;99.90
13960;DHT22;7052;51.050;3.716;2023-12-20T06:10:58;6.00;99.90
13960;DHT22;7052;51.050;3.716;2023-12-20T06:13:27;6.10;99.90
13960;DHT22;7052;51.050;3.716;2023-12-20T06:15:55;5.90;99.90
13960;DHT22;7052;51.050;3.716;2023-12-20T06:18:22;5.90;99.90
13960;DHT22;7052;51.050;3.716;2023-12-20T06:20:50;5.90;99.90
13960;DHT22;7052;51.050;3.716;2023-12-20T06:23:17;5.90;99.90
13960;DHT22;7052;51.050;3.716;2023-12-20T06:25:48;5.90;99.90
13960;DHT22;7052;51.050;3.716;2023-12-20T06:28:16;5.80;99.90
13960;DHT22;7052;51.050;3.716;2023-12-20T06:30:45;5.80;99.90
13960;DHT22;7052;51.050;3.716;2023-12-20T06:33:12;5.80;99.90
13960;DHT22;7052;51.050;3.716;2023-12-20T06:35:44;5.80;99.90
13960;DHT22;7052;51.050;3.716;2023-12-20T06:38:12;5.80;99.90
13960;DHT22;7052;51.050;3.716;2023-12-20T06:40:40;5.90;99.90
13960;DHT22;7052;51.050;3.716;2023-12-20T06:43:10;5.90;99.90
13960;DHT22;7052;51.050;3.716;2023-12-20T06:45:39;5.80;99.90
13960;DHT22;7052;51.050;3.716;2023-12-20T06:48:08;5.80;99.90
13960;DHT22;7052;51.050;3.716;2023-12-20T06:50:37;5.80;99.90
13960;DHT22;7052;51.050;3.716;2023-12-20T06:53:06;5.80;99.90
13960;DHT22;7052;51.050;3.716;2023-12-20T06:55:34;5.80;99.90
13960;DHT22;7052;51.050;3.716;2023-12-20T06:58:03;5.80;99.90
13960;DHT22;7052;51.050;3.716;2023-12-20T07:00:34;5.80;99.90
13960;DHT22;7052;51.050;3.716;2023-12-20T07:03:01;5.80;99.90
13960;DHT22;7052;51.050;3.716;2023-12-20T07:05:29;5.70;99.90
13960;DHT22;7052;51.050;3.716;2023-12-20T07:07:57;5.70;99.90
13960;DHT22;7052;51.050;3.716;2023-12-20T07:10:24;5.70;99.90
13960;DHT22;7052;51.050;3.716;2023-12-20T07:12:54;5.70;99.90
13960;DHT22;7052;51.050;3.716;2023-12-20T07:15:22;5.70;99.90
13960;DHT22;7052;51.050;3.716;2023-12-20T07:17:53;5.80;99.90
13960;DHT22;7052;51.050;3.716;2023-12-20T07:20:22;5.70;99.90
13960;DHT22;7052;51.050;3.716;2023-12-20T07:22:53;5.70;99.90
13960;DHT22;7052;51.050;3.716;2023-12-20T07:25:20;5.70;99.90
13960;DHT22;7052;51.050;3.716;2023-12-20T07:27:47;5.70;99.90
13960;DHT22;7052;51.050;3.716;2023-12-20T07:30:15;5.70;99.90
13960;DHT22;7052;51.050;3.716;2023-12-20T07:32:41;5.70;99.90
13960;DHT22;7052;51.050;3.716;2023-12-20T07:35:12;5.70;99.90
13960;DHT22;7052;51.050;3.716;2023-12-20T07:37:40;5.70;99.90
13960;DHT22;7052;51.050;3.716;2023-12-20T07:40:08;5.70;99.90
13960;DHT22;7052;51.050;3.716;2023-12-20T07:42:35;5.70;99.90
13960;DHT22;7052;51.050;3.716;2023-12-20T07:45:02;5.60;99.90
13960;DHT22;7052;51.050;3.716;2023-12-20T07:47:30;5.70;99.90
13960;DHT22;7052;51.050;3.716;2023-12-20T07:49:57;5.70;99.90
13960;DHT22;7052;51.050;3.716;2023-12-20T07:52:27;5.70;99.90
13960;DHT22;7052;51.050;3.716;2023-12-20T07:54:54;5.80;99.90
13960;DHT22;7052;51.050;3.716;2023-12-20T07:57:21;5.90;99.90
13960;DHT22;7052;51.050;3.716;2023-12-20T07:59:49;5.80;99.90
13960;DHT22;7052;51.050;3.716;2023-12-20T08:02:16;5.80;99.90
13960;DHT22;7052;51.050;3.716;2023-12-20T08:04:46;5.80;99.90
13960;DHT22;7052;51.050;3.716;2023-12-20T08:07:13;5.90;99.90
13960;DHT22;7052;51.050;3.716;2023-12-20T08:09:44;5.80;99.90
13960;DHT22;7052;51.050;3.716;2023-12-20T08:12:12;5.80;99.90
13960;DHT22;7052;51.050;3.716;2023-12-20T08:14:39;5.80;99.90
13960;DHT22;7052;51.050;3.716;2023-12-20T08:17:06;5.80;99.90
13960;DHT22;7052;51.050;3.716;2023-12-20T08:19:33;5.80;99.90
13960;DHT22;7052;51.050;3.716;2023-12-20T08:22:00;5.80;99.90
13960;DHT22;7052;51.050;3.716;2023-12-20T08:24:29;5.80;99.90
13960;DHT22;7052;51.050;3.716;2023-12-20T08:26:58;5.80;99.90
13960;DHT22;7052;51.050;3.716;2023-12-20T08:29:25;5.90;99.90
13960;DHT22;7052;51.050;3.716;2023-12-20T08:31:52;5.90;99.90
13960;DHT22;7052;51.050;3.716;2023-12-20T08:34:20;5.80;99.90
13960;DHT22;7052;51.050;3.716;2023-12-20T08:36:47;5.80;99.90
13960;DHT22;7052;51.050;3.716;2023-12-20T08:39:15;5.90;99.90
13960;DHT22;7052;51.050;3.716;2023-12-20T08:41:42;5.90;99.90
13960;DHT22;7052;51.050;3.716;2023-12-20T08:44:13;5.90;99.90
13960;DHT22;7052;51.050;3.716;2023-12-20T08:46:41;5.90;99.90
13960;DHT22;7052;51.050;3.716;2023-12-20T08:49:08;5.90;99.90
13960;DHT22;7052;51.050;3.716;2023-12-20T08:51:43;5.90;99.90
13960;DHT22;7052;51.050;3.716;2023-12-20T08:54:11;5.90;99.90
13960;DHT22;7052;51.050;3.716;2023-12-20T08:56:42;6.00;99.90
13960;DHT22;7052;51.050;3.716;2023-12-20T08:59:10;6.10;99.90
13960;DHT22;7052;51.050;3.716;2023-12-20T09:01:43;6.10;99.90
13960;DHT22;7052;51.050;3.716;2023-12-20T09:04:23;6.20;99.90
13960;DHT22;7052;51.050;3.716;2023-12-20T09:06:50;6.30;99.90
13960;DHT22;7052;51.050;3.716;2023-12-20T09:09:22;6.30;99.90
13960;DHT22;7052;51.050;3.716;2023-12-20T09:11:50;6.40;99.90
13960;DHT22;7052;51.050;3.716;2023-12-20T09:14:17;6.40;99.90
13960;DHT22;7052;51.050;3.716;2023-12-20T09:16:47;6.50;99.90
13960;DHT22;7052;51.050;3.716;2023-12-20T09:19:17;6.50;99.90
13960;DHT22;7052;51.050;3.716;2023-12-20T09:21:46;6.50;99.90
13960;DHT22;7052;51.050;3.716;2023-12-20T09:24:13;6.60;99.90
13960;DHT22;7052;51.050;3.716;2023-12-20T09:26:42;6.60;99.90
13960;DHT22;7052;51.050;3.716;2023-12-20T09:29:10;6.60;99.90
13960;DHT22;7052;51.050;3.716;2023-12-20T09:31:41;6.60;99.90
13960;DHT22;7052;51.050;3.716;2023-12-20T09:34:14;6.50;99.90
13960;DHT22;7052;51.050;3.716;2023-12-20T09:36:43;6.50;99.90
13960;DHT22;7052;51.050;3.716;2023-12-20T09:39:13;6.50;99.90
13960;DHT22;7052;51.050;3.716;2023-12-20T09:41:45;6.50;99.90
13960;DHT22;7052;51.050;3.716;2023-12-20T09:44:16;6.60;99.90
13960;DHT22;7052;51.050;3.716;2023-12-20T09:46:49;6.70;99.90
13960;DHT22;7052;51.050;3.716;2023-12-20T09:49:18;6.90;99.90
13960;DHT22;7052;51.050;3.716;2023-12-20T09:51:50;6.90;99.90
13960;DHT22;7052;51.050;3.716;2023-12-20T09:54:21;7.10;99.90
13960;DHT22;7052;51.050;3.716;2023-12-20T09:56:49;7.10;99.90
13960;DHT22;7052;51.050;3.716;2023-12-20T09:59:16;7.20;99.90
13960;DHT22;7052;51.050;3.716;2023-12-20T10:01:44;7.30;99.90
13960;DHT22;7052;51.050;3.716;2023-12-20T10:04:12;7.50;99.90
13960;DHT22;7052;51.050;3.716;2023-12-20T10:06:41;7.40;99.90
13960;DHT22;7052;51.050;3.716;2023-12-20T10:09:09;7.40;99.90
13960;DHT22;7052;51.050;3.716;2023-12-20T10:11:36;7.40;99.90
13960;DHT22;7052;51.050;3.716;2023-12-20T10:14:13;7.50;99.90
13960;DHT22;7052;51.050;3.716;2023-12-20T10:16:41;7.50;99.90
13960;DHT22;7052;51.050;3.716;2023-12-20T10:19:08;7.50;99.90
13960;DHT22;7052;51.050;3.716;2023-12-20T10:21:35;7.60;99.90
13960;DHT22;7052;51.050;3.716;2023-12-20T10:24:05;7.70;99.90
13960;DHT22;7052;51.050;3.716;2023-12-20T10:26:33;7.60;99.90
13960;DHT22;7052;51.050;3.716;2023-12-20T10:29:00;7.70;99.90
13960;DHT22;7052;51.050;3.716;2023-12-20T10:31:31;7.60;99.90
13960;DHT22;7052;51.050;3.716;2023-12-20T10:34:00;7.70;99.90
13960;DHT22;7052;51.050;3.716;2023-12-20T10:36:28;7.70;99.90
13960;DHT22;7052;51.050;3.716;2023-12-20T10:38:57;7.70;99.90
13960;DHT22;7052;51.050;3.716;2023-12-20T10:41:29;7.80;99.90
13960;DHT22;7052;51.050;3.716;2023-12-20T10:44:00;7.80;99.90
13960;DHT22;7052;51.050;3.716;2023-12-20T10:46:28;7.80;99.90
13960;DHT22;7052;51.050;3.716;2023-12-20T10:48:56;7.90;99.90
13960;DHT22;7052;51.050;3.716;2023-12-20T10:51:24;7.80;99.90
13960;DHT22;7052;51.050;3.716;2023-12-20T10:53:53;7.90;99.90
13960;DHT22;7052;51.050;3.716;2023-12-20T10:56:20;7.90;99.90
13960;DHT22;7052;51.050;3.716;2023-12-20T10:58:52;8.00;99.90
13960;DHT22;7052;51.050;3.716;2023-12-20T11:01:19;8.00;99.90
13960;DHT22;7052;51.050;3.716;2023-12-20T11:03:49;8.00;99.90
13960;DHT22;7052;51.050;3.716;2023-12-20T11:06:33;8.10;99.90
13960;DHT22;7052;51.050;3.716;2023-12-20T11:09:17;8.20;99.90
13960;DHT22;7052;51.050;3.716;2023-12-20T11:11:59;8.20;99.90
13960;DHT22;7052;51.050;3.716;2023-12-20T11:14:34;8.30;99.90
13960;DHT22;7052;51.050;3.716;2023-12-20T11:17:06;8.30;99.90
13960;DHT22;7052;51.050;3.716;2023-12-20T11:19:36;8.30;99.90
13960;DHT22;7052;51.050;3.716;2023-12-20T11:22:05;8.40;99.90
13960;DHT22;7052;51.050;3.716;2023-12-20T11:24:34;8.40;99.90
13960;DHT22;7052;51.050;3.716;2023-12-20T11:27:05;8.50;99.90
13960;DHT22;7052;51.050;3.716;2023-12-20T11:29:38;8.50;99.90
13960;DHT22;7052;51.050;3.716;2023-12-20T11:32:28;8.60;99.90
13960;DHT22;7052;51.050;3.716;2023-12-20T11:34:57;8.60;99.90
13960;DHT22;7052;51.050;3.716;2023-12-20T11:37:30;8.70;99.90
13960;DHT22;7052;51.050;3.716;2023-12-20T11:40:01;8.70;99.90
13960;DHT22;7052;51.050;3.716;2023-12-20T11:42:33;8.70;99.90
13960;DHT22;7052;51.050;3.716;2023-12-20T11:45:19;8.70;99.90
13960;DHT22;7052;51.050;3.716;2023-12-20T11:47:48;8.70;99.90
13960;DHT22;7052;51.050;3.716;2023-12-20T11:50:15;8.80;99.90
13960;DHT22;7052;51.050;3.716;2023-12-20T11:52:43;8.80;99.90
13960;DHT22;7052;51.050;3.716;2023-12-20T11:55:23;8.80;99.90
13960;DHT22;7052;51.050;3.716;2023-12-20T11:57:50;8.80;99.90
13960;DHT22;7052;51.050;3.716;2023-12-20T12:00:22;8.80;99.90
13960;DHT22;7052;51.050;3.716;2023-12-20T12:02:58;8.80;99.90
13960;DHT22;7052;51.050;3.716;2023-12-20T12:05:27;8.80;99.90
13960;DHT22;7052;51.050;3.716;2023-12-20T12:07:58;8.80;99.90
13960;DHT22;7052;51.050;3.716;2023-12-20T12:10:26;8.80;99.90
13960;DHT22;7052;51.050;3.716;2023-12-20T12:12:54;8.80;99.90
13960;DHT22;7052;51.050;3.716;2023-12-20T12:15:23;8.80;99.90
13960;DHT22;7052;51.050;3.716;2023-12-20T12:17:55;8.80;99.90
13960;DHT22;7052;51.050;3.716;2023-12-20T12:20:26;8.80;99.90
13960;DHT22;7052;51.050;3.716;2023-12-20T12:23:00;8.80;99.90
13960;DHT22;7052;51.050;3.716;2023-12-20T12:25:29;8.80;99.90
13960;DHT22;7052;51.050;3.716;2023-12-20T12:27:59;8.80;99.90
13960;DHT22;7052;51.050;3.716;2023-12-20T12:30:28;8.80;99.90
13960;DHT22;7052;51.050;3.716;2023-12-20T12:32:56;8.80;99.90
13960;DHT22;7052;51.050;3.716;2023-12-20T12:35:28;8.80;99.90
13960;DHT22;7052;51.050;3.716;2023-12-20T12:37:59;8.80;99.90
13960;DHT22;7052;51.050;3.716;2023-12-20T12:40:29;9.00;99.90
13960;DHT22;7052;51.050;3.716;2023-12-20T12:42:56;9.00;99.90
13960;DHT22;7052;51.050;3.716;2023-12-20T12:45:24;9.10;99.90
13960;DHT22;7052;51.050;3.716;2023-12-20T12:47:58;9.20;99.90
13960;DHT22;7052;51.050;3.716;2023-12-20T12:50:26;9.30;99.90
13960;DHT22;7052;51.050;3.716;2023-12-20T12:52:57;9.40;99.90
13960;DHT22;7052;51.050;3.716;2023-12-20T12:55:25;9.40;99.90
13960;DHT22;7052;51.050;3.716;2023-12-20T12:57:52;9.40;99.90
13960;DHT22;7052;51.050;3.716;2023-12-20T13:00:19;9.50;99.90
13960;DHT22;7052;51.050;3.716;2023-12-20T13:02:50;9.50;99.90
13960;DHT22;7052;51.050;3.716;2023-12-20T13:05:22;9.50;99.90
13960;DHT22;7052;51.050;3.716;2023-12-20T13:07:51;9.60;99.90
13960;DHT22;7052;51.050;3.716;2023-12-20T13:10:18;9.60;99.90
13960;DHT22;7052;51.050;3.716;2023-12-20T13:12:45;9.60;99.90
13960;DHT22;7052;51.050;3.716;2023-12-20T13:15:12;9.60;99.90
13960;DHT22;7052;51.050;3.716;2023-12-20T13:17:40;9.60;99.90
13960;DHT22;7052;51.050;3.716;2023-12-20T13:20:08;9.60;99.90
13960;DHT22;7052;51.050;3.716;2023-12-20T13:22:38;9.60;99.90
13960;DHT22;7052;51.050;3.716;2023-12-20T13:25:06;9.60;99.90
13960;DHT22;7052;51.050;3.716;2023-12-20T13:27:35;9.60;99.90
13960;DHT22;7052;51.050;3.716;2023-12-20T13:30:03;9.60;99.90
13960;DHT22;7052;51.050;3.716;2023-12-20T13:32:31;9.60;99.90
13960;DHT22;7052;51.050;3.716;2023-12-20T13:34:59;9.60;99.90
13960;DHT22;7052;51.050;3.716;2023-12-20T13:37:26;9.60;99.90
13960;DHT22;7052;51.050;3.716;2023-12-20T13:40:07;9.50;99.90
13960;DHT22;7052;51.050;3.716;2023-12-20T13:42:38;9.60;99.90
13960;DHT22;7052;51.050;3.716;2023-12-20T13:45:07;9.60;99.90
13960;DHT22;7052;51.050;3.716;2023-12-20T13:47:36;9.50;99.90
13960;DHT22;7052;51.050;3.716;2023-12-20T13:50:10;9.50;99.90
13960;DHT22;7052;51.050;3.716;2023-12-20T13:52:39;9.50;99.90
13960;DHT22;7052;51.050;3.716;2023-12-20T13:55:09;9.50;99.90
13960;DHT22;7052;51.050;3.716;2023-12-20T13:57:37;9.50;99.90
13960;DHT22;7052;51.050;3.716;2023-12-20T14:00:06;9.50;99.90
13960;DHT22;7052;51.050;3.716;2023-12-20T14:02:40;9.50;99.90
13960;DHT22;7052;51.050;3.716;2023-12-20T14:05:08;9.50;99.90
13960;DHT22;7052;51.050;3.716;2023-12-20T14:07:36;9.50;99.90
13960;DHT22;7052;51.050;3.716;2023-12-20T14:10:07;9.50;99.90
13960;DHT22;7052;51.050;3.716;2023-12-20T14:12:38;9.50;99.90
13960;DHT22;7052;51.050;3.716;2023-12-20T14:15:06;9.50;99.90
13960;DHT22;7052;51.050;3.716;2023-12-20T14:17:37;9.50;99.90
13960;DHT22;7052;51.050;3.716;2023-12-20T14:20:05;9.50;99.90
13960;DHT22;7052;51.050;3.716;2023-12-20T14:22:35;9.50;99.90
13960;DHT22;7052;51.050;3.716;2023-12-20T14:25:05;9.50;99.90
13960;DHT22;7052;51.050;3.716;2023-12-20T14:27:36;9.50;99.90
13960;DHT22;7052;51.050;3.716;2023-12-20T14:30:07;9.50;99.90
13960;DHT22;7052;51.050;3.716;2023-12-20T14:32:35;9.50;99.90
13960;DHT22;7052;51.050;3.716;2023-12-20T14:35:04;9.50;99.90
13960;DHT22;7052;51.050;3.716;2023-12-20T14:37:32;9.50;99.90
13960;DHT22;7052;51.050;3.716;2023-12-20T14:39:59;9.50;99.90
13960;DHT22;7052;51.050;3.716;2023-12-20T14:42:28;9.50;99.90
13960;DHT22;7052;51.050;3.716;2023-12-20T14:44:59;9.50;99.90
13960;DHT22;7052;51.050;3.716;2023-12-20T14:47:26;9.40;99.90
13960;DHT22;7052;51.050;3.716;2023-12-20T14:49:55;9.50;99.90
13960;DHT22;7052;51.050;3.716;2023-12-20T14:52:24;9.50;99.90
13960;DHT22;7052;51.050;3.716;2023-12-20T14:54:51;9.50;99.90
13960;DHT22;7052;51.050;3.716;2023-12-20T14:57:18;9.50;99.90
13960;DHT22;7052;51.050;3.716;2023-12-20T14:59:45;9.50;99.90
13960;DHT22;7052;51.050;3.716;2023-12-20T15:02:14;9.40;99.90
13960;DHT22;7052;51.050;3.716;2023-12-20T15:04:41;9.40;99.90
13960;DHT22;7052;51.050;3.716;2023-12-20T15:07:08;9.50;99.90
13960;DHT22;7052;51.050;3.716;2023-12-20T15:09:36;9.50;99.90
13960;DHT22;7052;51.050;3.716;2023-12-20T15:12:06;9.50;99.90
13960;DHT22;7052;51.050;3.716;2023-12-20T15:14:33;9.50;99.90
13960;DHT22;7052;51.050;3.716;2023-12-20T15:17:01;9.40;99.90
13960;DHT22;7052;51.050;3.716;2023-12-20T15:19:29;9.40;99.90
13960;DHT22;7052;51.050;3.716;2023-12-20T15:21:57;9.40;99.90
13960;DHT22;7052;51.050;3.716;2023-12-20T15:24:24;9.30;99.90
13960;DHT22;7052;51.050;3.716;2023-12-20T15:26:54;9.30;99.90
13960;DHT22;7052;51.050;3.716;2023-12-20T15:29:23;9.30;99.90
13960;DHT22;7052;51.050;3.716;2023-12-20T15:31:50;9.30;99.90
13960;DHT22;7052;51.050;3.716;2023-12-20T15:34:21;9.30;99.90
13960;DHT22;7052;51.050;3.716;2023-12-20T15:36:49;9.30;99.90
13960;DHT22;7052;51.050;3.716;2023-12-20T15:39:18;9.30;99.90
13960;DHT22;7052;51.050;3.716;2023-12-20T15:41:45;9.30;99.90
13960;DHT22;7052;51.050;3.716;2023-12-20T15:44:12;9.30;99.90
13960;DHT22;7052;51.050;3.716;2023-12-20T15:46:41;9.30;99.90
13960;DHT22;7052;51.050;3.716;2023-12-20T15:49:08;9.30;99.90
13960;DHT22;7052;51.050;3.716;2023-12-20T15:51:41;9.30;99.90
13960;DHT22;7052;51.050;3.716;2023-12-20T15:54:16;9.30;99.90
13960;DHT22;7052;51.050;3.716;2023-12-20T15:56:43;9.30;99.90
13960;DHT22;7052;51.050;3.716;2023-12-20T15:59:10;9.30;99.90
13960;DHT22;7052;51.050;3.716;2023-12-20T16:01:37;9.30;99.90
13960;DHT22;7052;51.050;3.716;2023-12-20T16:04:05;9.30;99.90
13960;DHT22;7052;51.050;3.716;2023-12-20T16:06:33;9.30;99.90
13960;DHT22;7052;51.050;3.716;2023-12-20T16:09:03;9.30;99.90
13960;DHT22;7052;51.050;3.716;2023-12-20T16:11:33;9.30;99.90